Big Bear Station Historical Data
Daily Summary for May 20, 2017 Units:  English    Metric   Both
« Previous Day
Next Day »
Daily Weekly Monthly Yearly Custom
  High: Low: Average:
Temperature: 77.2 °F 35.4 °F 54.8 °F
Dew Point: 36.4 °F 24.4 °F 29.7 °F
Humidity: 82 % 17 % 45 %
Wind Speed: 7.3 mph 0.0 mph 1.9 mph
Wind Gust: -999.0 mph - -
Wind:- - WSW
Pressure: 30.17 in 30.11 in -
Precipitation: 0.00 in    
Historical Graphs
 
 
Tabular Data for May 20, 2017
Time Temperature Dew Point Pressure Wind Wind Speed Wind Gust Humidity Rainfall Rate (Hourly)
00:11 39.7 °F 24.4 °F 30.15 in Calm   -999.0 mph 54 % 0 in
00:27 39.6 °F 25.2 °F 30.14 in Calm   -999.0 mph 56 % 0 in
00:42 39.6 °F 26.4 °F 30.14 in Calm   -999.0 mph 59 % 0 in
00:57 39.2 °F 27.3 °F 30.14 in South 1.7 mph -999.0 mph 62 % 0 in
01:12 39.0 °F 28.2 °F 30.14 in SSE 1.7 mph -999.0 mph 65 % 0 in
01:27 38.7 °F 27.9 °F 30.14 in SSE 1.7 mph -999.0 mph 65 % 0 in
01:43 38.7 °F 26.8 °F 30.13 in Calm   -999.0 mph 62 % 0 in
01:58 37.9 °F 27.9 °F 30.13 in Calm   -999.0 mph 67 % 0 in
02:14 37.9 °F 27.9 °F 30.13 in SSE 1.7 mph -999.0 mph 67 % 0 in
02:29 37.9 °F 27.9 °F 30.13 in SSE 2.2 mph -999.0 mph 67 % 0 in
02:44 37.6 °F 28.7 °F 30.13 in SSE 1.1 mph -999.0 mph 70 % 0 in
02:59 37.6 °F 28.7 °F 30.13 in SSE 1.1 mph -999.0 mph 70 % 0 in
03:15 37.4 °F 28.9 °F 30.13 in Calm   -999.0 mph 71 % 0 in
03:30 36.9 °F 28.7 °F 30.13 in Calm   -999.0 mph 72 % 0 in
03:45 37.0 °F 30.1 °F 30.13 in South 2.2 mph -999.0 mph 76 % 0 in
04:00 36.7 °F 30.2 °F 30.13 in SSE 2.2 mph -999.0 mph 77 % 0 in
04:15 36.5 °F 29.7 °F 30.13 in Calm   -999.0 mph 76 % 0 in
04:31 36.5 °F 29.7 °F 30.13 in Calm   -999.0 mph 76 % 0 in
04:46 36.5 °F 30.0 °F 30.13 in SSE 1.1 mph -999.0 mph 77 % 0 in
05:01 36.1 °F 29.9 °F 30.13 in Calm   -999.0 mph 78 % 0 in
05:16 36.0 °F 30.4 °F 30.13 in Calm   -999.0 mph 80 % 0 in
05:31 35.6 °F 29.7 °F 30.13 in Calm   -999.0 mph 79 % 0 in
05:47 35.4 °F 29.5 °F 30.13 in SSE 2.2 mph -999.0 mph 79 % 0 in
06:02 35.4 °F 28.9 °F 30.13 in South 1.7 mph -999.0 mph 77 % 0 in
06:17 35.6 °F 30.6 °F 30.14 in Calm   -999.0 mph 82 % 0 in
06:32 36.1 °F 31.1 °F 30.14 in Calm   -999.0 mph 82 % 0 in
06:47 36.1 °F 30.8 °F 30.15 in Calm   -999.0 mph 81 % 0 in
07:03 36.9 °F 31.3 °F 30.15 in Calm   -999.0 mph 80 % 0 in
07:18 38.1 °F 31.8 °F 30.15 in Calm   -999.0 mph 78 % 0 in
07:33 38.8 °F 33.2 °F 30.16 in Calm   -999.0 mph 80 % 0 in
07:48 40.3 °F 30.9 °F 30.16 in Calm   -999.0 mph 69 % 0 in
08:03 42.6 °F 30.1 °F 30.16 in Calm   -999.0 mph 61 % 0 in
08:19 44.8 °F 32.2 °F 30.16 in Calm   -999.0 mph 61 % 0 in
08:34 48.7 °F 28.3 °F 30.16 in NNE 1.1 mph -999.0 mph 45 % 0 in
08:49 52.3 °F 26.1 °F 30.16 in Calm   -999.0 mph 36 % 0 in
09:04 55.2 °F 26.6 °F 30.16 in SE 2.7 mph -999.0 mph 33 % 0 in
09:20 57.7 °F 26.5 °F 30.17 in NE 2.2 mph -999.0 mph 30 % 0 in
09:35 59.2 °F 26.1 °F 30.16 in WNW 2.7 mph -999.0 mph 28 % 0 in
09:51 60.3 °F 27.0 °F 30.16 in Calm   -999.0 mph 28 % 0 in
10:06 61.9 °F 26.6 °F 30.16 in SE 1.7 mph -999.0 mph 26 % 0 in
10:21 62.2 °F 26.9 °F 30.16 in NW 3.2 mph -999.0 mph 26 % 0 in
10:37 62.8 °F 26.4 °F 30.16 in South 2.2 mph -999.0 mph 25 % 0 in
10:53 63.5 °F 26.0 °F 30.16 in SW 3.2 mph -999.0 mph 24 % 0 in
11:08 66.2 °F 26.2 °F 30.16 in NNW 3.7 mph -999.0 mph 22 % 0 in
11:23 65.8 °F 24.8 °F 30.16 in NW 5.8 mph -999.0 mph 21 % 0 in
11:38 67.3 °F 27.1 °F 30.16 in ESE 2.2 mph -999.0 mph 22 % 0 in
11:54 69.6 °F 26.7 °F 30.16 in NW 3.2 mph -999.0 mph 20 % 0 in
12:09 69.8 °F 28.1 °F 30.16 in NW 7.3 mph -999.0 mph 21 % 0 in
12:24 70.0 °F 25.8 °F 30.16 in WNW 7.3 mph -999.0 mph 19 % 0 in
12:40 70.7 °F 27.7 °F 30.16 in NNW 1.1 mph -999.0 mph 20 % 0 in
12:55 71.2 °F 25.5 °F 30.16 in NW 5.3 mph -999.0 mph 18 % 0 in
13:10 70.2 °F 26.0 °F 30.15 in NW 5.3 mph -999.0 mph 19 % 0 in
13:26 72.9 °F 29.5 °F 30.15 in NW 4.7 mph -999.0 mph 20 % 0 in
13:41 72.5 °F 27.9 °F 30.15 in WNW 2.7 mph -999.0 mph 19 % 0 in
13:56 73.0 °F 29.6 °F 30.14 in WNW 4.2 mph -999.0 mph 20 % 0 in
14:11 72.9 °F 29.5 °F 30.14 in NW 4.2 mph -999.0 mph 20 % 0 in
14:27 73.0 °F 30.8 °F 30.14 in WNW 5.8 mph -999.0 mph 21 % 0 in
14:42 73.9 °F 33.8 °F 30.13 in NW 5.3 mph -999.0 mph 23 % 0 in
14:57 73.8 °F 34.7 °F 30.13 in WNW 5.3 mph -999.0 mph 24 % 0 in
15:13 72.9 °F 29.5 °F 30.13 in North 3.2 mph -999.0 mph 20 % 0 in
15:28 73.9 °F 30.3 °F 30.13 in North 4.7 mph -999.0 mph 20 % 0 in
15:44 72.9 °F 29.5 °F 30.13 in NW 6.3 mph -999.0 mph 20 % 0 in
15:59 73.6 °F 31.3 °F 30.13 in North 4.2 mph -999.0 mph 21 % 0 in
16:14 74.1 °F 30.5 °F 30.13 in WNW 4.7 mph -999.0 mph 20 % 0 in
16:30 72.9 °F 26.9 °F 30.12 in NW 2.7 mph -999.0 mph 18 % 0 in
16:45 76.6 °F 28.5 °F 30.12 in NW 4.2 mph -999.0 mph 17 % 0 in
17:00 77.2 °F 31.7 °F 30.12 in NNW 4.7 mph -999.0 mph 19 % 0 in
17:15 75.6 °F 30.4 °F 30.12 in NE 2.7 mph -999.0 mph 19 % 0 in
17:31 76.3 °F 28.3 °F 30.12 in NNW 3.7 mph -999.0 mph 17 % 0 in
17:46 75.2 °F 28.8 °F 30.12 in NW 3.7 mph -999.0 mph 18 % 0 in
18:01 75.9 °F 29.3 °F 30.11 in NNW 3.7 mph -999.0 mph 18 % 0 in
18:16 76.8 °F 31.4 °F 30.12 in NNW 2.7 mph -999.0 mph 19 % 0 in
18:31 75.4 °F 36.1 °F 30.11 in NNW 1.7 mph -999.0 mph 24 % 0 in
18:47 72.5 °F 35.7 °F 30.12 in WNW 2.7 mph -999.0 mph 26 % 0 in
19:02 71.2 °F 36.4 °F 30.12 in NW 3.2 mph -999.0 mph 28 % 0 in
19:17 66.7 °F 34.3 °F 30.12 in Calm   -999.0 mph 30 % 0 in
19:32 64.0 °F 34.3 °F 30.13 in Calm   -999.0 mph 33 % 0 in
19:48 61.3 °F 34.1 °F 30.13 in Calm   -999.0 mph 36 % 0 in
20:03 58.6 °F 32.4 °F 30.13 in Calm   -999.0 mph 37 % 0 in
20:18 56.8 °F 33.3 °F 30.13 in Calm   -999.0 mph 41 % 0 in
20:33 55.0 °F 32.9 °F 30.13 in SSW 1.7 mph -999.0 mph 43 % 0 in
20:49 53.2 °F 32.9 °F 30.14 in Calm   -999.0 mph 46 % 0 in
21:04 52.0 °F 32.4 °F 30.14 in Calm   -999.0 mph 47 % 0 in
21:19 51.1 °F 32.1 °F 30.15 in Calm   -999.0 mph 48 % 0 in
21:34 50.2 °F 32.3 °F 30.15 in Calm   -999.0 mph 50 % 0 in
21:49 49.3 °F 30.9 °F 30.15 in South 1.7 mph -999.0 mph 49 % 0 in
22:05 48.7 °F 30.9 °F 30.15 in Calm   -999.0 mph 50 % 0 in
22:20 47.8 °F 31.0 °F 30.16 in Calm   -999.0 mph 52 % 0 in
22:35 47.3 °F 31.9 °F 30.16 in Calm   -999.0 mph 55 % 0 in
22:50 46.6 °F 32.6 °F 30.16 in SE 1.7 mph -999.0 mph 58 % 0 in
23:05 46.2 °F 31.8 °F 30.16 in South 1.7 mph -999.0 mph 57 % 0 in
23:21 45.7 °F 32.2 °F 30.16 in SSE 1.1 mph -999.0 mph 59 % 0 in
23:36 45.5 °F 32.0 °F 30.16 in SE 1.7 mph -999.0 mph 59 % 0 in
23:51 44.8 °F 29.6 °F 30.16 in Calm   -999.0 mph 55 % 0 in
Big Bear CA Weather
Compliments of Weather Underground - 1.5 mb